createdAt,value
2018-02-25T00:00:49.758Z,80.6
2018-02-25T00:01:59.454Z,80.32
2018-02-25T00:03:09.424Z,80.79
2018-02-25T00:04:19.123Z,80.88
2018-02-25T00:05:29.102Z,80.88
2018-02-25T00:06:38.549Z,80.6
2018-02-25T00:07:48.502Z,80.79
2018-02-25T00:08:58.479Z,80.79
2018-02-25T00:10:08.437Z,80.79
2018-02-25T00:11:18.393Z,81.16
2018-02-25T00:12:28.109Z,81.07
2018-02-25T00:13:37.804Z,81.07
2018-02-25T00:14:47.751Z,81.16
2018-02-25T00:15:57.720Z,80.69
2018-02-25T00:17:07.406Z,80.98
2018-02-25T00:18:17.104Z,80.88
2018-02-25T00:19:27.077Z,80.69
2018-02-25T00:20:37.036Z,81.16
2018-02-25T00:21:46.996Z,80.79
2018-02-25T00:22:57.001Z,81.16
2018-02-25T00:24:06.950Z,81.26
2018-02-25T00:25:16.913Z,81.45
2018-02-25T00:26:26.868Z,81.26
2018-02-25T00:27:36.578Z,81.07
2018-02-25T00:28:46.266Z,80.98
2018-02-25T00:29:56.212Z,81.35
2018-02-25T00:31:05.137Z,81.07
2018-02-25T00:32:15.079Z,81.07
2018-02-25T00:33:24.807Z,80.98
2018-02-25T00:34:34.766Z,81.26
2018-02-25T00:35:44.721Z,81.73
2018-02-25T00:36:54.424Z,82.1
2018-02-25T00:38:04.389Z,81.26
2018-02-25T00:39:14.340Z,81.73
2018-02-25T00:40:23.768Z,81.82
2018-02-25T00:41:33.486Z,81.63
2018-02-25T00:42:43.442Z,80.98
2018-02-25T00:43:52.881Z,81.16
2018-02-25T00:45:02.838Z,80.88
2018-02-25T00:46:12.548Z,80.88
2018-02-25T00:47:22.512Z,81.35
2018-02-25T00:48:31.688Z,80.88
2018-02-25T00:49:41.637Z,81.73
2018-02-25T00:50:51.330Z,81.73
2018-02-25T00:52:01.025Z,81.54
2018-02-25T00:53:10.469Z,81.82
2018-02-25T00:54:19.903Z,81.92
2018-02-25T00:55:29.875Z,81.73
2018-02-25T00:56:39.315Z,82.2
2018-02-25T00:57:49.014Z,82.58
2018-02-25T00:58:58.961Z,82.67
2018-02-25T01:00:08.429Z,82.86
2018-02-25T01:01:18.123Z,83.05
2018-02-25T01:02:27.812Z,82.86
2018-02-25T01:03:37.245Z,82.86
2018-02-25T01:04:47.197Z,82.86
2018-02-25T01:05:56.900Z,82.95
2018-02-25T01:07:06.591Z,83.33
2018-02-25T01:08:16.594Z,83.14
2018-02-25T01:09:26.293Z,83.01
2018-02-25T01:10:35.986Z,83.2
2018-02-25T01:11:45.683Z,83.95
2018-02-25T01:12:55.120Z,83.76
2018-02-25T01:14:05.080Z,83.76
2018-02-25T01:15:14.792Z,84.05
2018-02-25T01:16:24.753Z,84.14
2018-02-25T01:17:34.706Z,84.23
2018-02-25T01:18:44.395Z,84.14
2018-02-25T01:19:53.837Z,83.86
2018-02-25T01:21:03.786Z,83.95
2018-02-25T01:22:13.482Z,84.14
2018-02-25T01:23:23.175Z,83.76
2018-02-25T01:24:32.861Z,83.76
2018-02-25T01:25:42.810Z,83.76
2018-02-25T01:26:52.247Z,83.58
2018-02-25T01:28:01.679Z,84.14
2018-02-25T01:29:11.379Z,84.14
2018-02-25T01:30:20.824Z,84.23
2018-02-25T01:31:30.796Z,84.42
2018-02-25T01:32:40.491Z,84.42
2018-02-25T01:33:49.662Z,84.42
2018-02-25T01:34:59.361Z,84.05
2018-02-25T01:36:09.048Z,84.61
2018-02-25T01:37:18.998Z,84.7
2018-02-25T01:38:28.430Z,84.61
2018-02-25T01:39:38.378Z,85.08
2018-02-25T01:40:48.329Z,85.17
2018-02-25T01:41:58.025Z,85.08
2018-02-25T01:43:07.465Z,84.8
2018-02-25T01:44:16.907Z,84.7
2018-02-25T01:45:26.864Z,84.7
2018-02-25T01:46:36.313Z,84.61
2018-02-25T01:47:46.264Z,84.52
2018-02-25T01:48:55.956Z,84.61
2018-02-25T01:50:05.936Z,84.89
2018-02-25T01:51:15.632Z,84.89
2018-02-25T01:52:25.321Z,85.08
2018-02-25T01:53:35.023Z,84.61
2018-02-25T01:54:44.964Z,84.89
2018-02-25T01:55:54.913Z,85.08
2018-02-25T01:57:04.340Z,86.21
2018-02-25T01:58:13.779Z,86.68
2018-02-25T01:59:23.874Z,86.87
2018-02-25T02:00:33.573Z,87.25
2018-02-25T02:01:43.682Z,87.06
2018-02-25T02:02:53.645Z,87.06
2018-02-25T02:04:03.338Z,87.15
2018-02-25T02:05:13.308Z,87.81
2018-02-25T02:06:23.007Z,88
2018-02-25T02:07:32.716Z,87.81
2018-02-25T02:08:42.140Z,88
2018-02-25T02:09:51.837Z,88.28
2018-02-25T02:11:01.017Z,88.19
2018-02-25T02:12:10.707Z,88.47
2018-02-25T02:13:20.142Z,88.95
2018-02-25T02:14:30.105Z,88.95
2018-02-25T02:15:39.804Z,89.04
2018-02-25T02:16:49.762Z,88.47
2018-02-25T02:17:59.448Z,88.28
2018-02-25T02:19:09.141Z,88.28
2018-02-25T02:20:19.106Z,88.85
2018-02-25T02:21:29.069Z,88.76
2018-02-25T02:22:39.017Z,88.66
2018-02-25T02:23:49.017Z,88.76
2018-02-25T02:24:58.960Z,88.76
2018-02-25T02:26:08.651Z,89.04
2018-02-25T02:27:18.086Z,89.04
2018-02-25T02:28:27.778Z,89.89
2018-02-25T02:29:37.205Z,89.89
2018-02-25T02:30:47.174Z,89.7
2018-02-25T02:31:56.884Z,89.89
2018-02-25T02:33:06.602Z,89.61
2018-02-25T02:34:16.572Z,89.89
2018-02-25T02:35:26.271Z,90.17
2018-02-25T02:36:36.072Z,90.08
2018-02-25T02:37:45.774Z,89.42
2018-02-25T02:38:55.486Z,90.26
2018-02-25T02:40:05.185Z,90.17
2018-02-25T02:41:14.899Z,89.98
2018-02-25T02:42:24.856Z,90.17
2018-02-25T02:43:34.643Z,89.79
2018-02-25T02:44:44.629Z,89.7
2018-02-25T02:45:54.327Z,90.17
2018-02-25T02:47:03.775Z,90.17
2018-02-25T02:48:13.470Z,90.08
2018-02-25T02:49:23.423Z,90.17
2018-02-25T02:50:33.129Z,89.7
2018-02-25T02:51:42.820Z,89.98
2018-02-25T02:52:52.771Z,90.17
2018-02-25T02:54:02.470Z,90.08
2018-02-25T02:55:12.449Z,90.17
2018-02-25T02:56:22.434Z,90.17
2018-02-25T02:57:32.119Z,90.17
2018-02-25T02:58:41.564Z,89.7
2018-02-25T02:59:51.527Z,89.98
2018-02-25T03:01:00.975Z,90.17
2018-02-25T03:02:10.684Z,90.26
2018-02-25T03:03:20.141Z,89.7
2018-02-25T03:04:30.141Z,89.79
2018-02-25T03:05:40.084Z,89.98
2018-02-25T03:06:50.050Z,89.7
2018-02-25T03:08:00.010Z,90.26
2018-02-25T03:09:09.454Z,90.73
2018-02-25T03:10:19.407Z,90.55
2018-02-25T03:11:29.357Z,90.73
2018-02-25T03:12:39.298Z,90.55
2018-02-25T03:13:48.992Z,90.55
2018-02-25T03:14:58.155Z,90.55
2018-02-25T03:16:08.127Z,90.36
2018-02-25T03:17:18.079Z,90.92
2018-02-25T03:18:27.773Z,90.64
2018-02-25T03:19:37.453Z,90.45
2018-02-25T03:20:47.148Z,90.73
2018-02-25T03:21:56.836Z,90.64
2018-02-25T03:23:06.523Z,91.3
2018-02-25T03:24:16.459Z,90.73
2018-02-25T03:25:26.472Z,90.64
2018-02-25T03:26:36.421Z,90.73
2018-02-25T03:27:45.603Z,91.58
2018-02-25T03:28:55.574Z,91.49
2018-02-25T03:30:05.287Z,91.58
2018-02-25T03:31:14.474Z,91.49
2018-02-25T03:32:24.189Z,91.11
2018-02-25T03:33:34.144Z,91.49
2018-02-25T03:34:43.594Z,91.49
2018-02-25T03:35:53.288Z,91.3
2018-02-25T03:37:03.238Z,91.58
2018-02-25T03:38:12.927Z,91.49
2018-02-25T03:39:22.880Z,91.67
2018-02-25T03:40:32.565Z,91.77
2018-02-25T03:41:42.517Z,92.05
2018-02-25T03:42:52.209Z,92.43
2018-02-25T03:44:02.162Z,91.77
2018-02-25T03:45:11.853Z,91.96
2018-02-25T03:46:21.551Z,91.96
2018-02-25T03:47:31.239Z,92.52
2018-02-25T03:48:41.183Z,92.05
2018-02-25T03:49:50.879Z,92.33
2018-02-25T03:51:00.054Z,91.96
2018-02-25T03:52:09.991Z,92.14
2018-02-25T03:53:19.424Z,92.52
2018-02-25T03:54:29.368Z,92.14
2018-02-25T03:55:39.062Z,92.24
2018-02-25T03:56:49.162Z,92.62
2018-02-25T03:57:59.103Z,92.52
2018-02-25T03:59:08.530Z,93.09
2018-02-25T04:00:18.220Z,92.8
2018-02-25T04:01:28.160Z,93.18
2018-02-25T04:02:38.106Z,92.43
2018-02-25T04:03:48.099Z,92.33
2018-02-25T04:04:58.045Z,92.33
2018-02-25T04:06:08.009Z,92.62
2018-02-25T04:07:17.696Z,93.28
2018-02-25T04:08:27.402Z,93.56
2018-02-25T04:09:37.352Z,93.65
2018-02-25T04:10:47.322Z,93.75
2018-02-25T04:11:57.017Z,94.5
2018-02-25T04:13:06.964Z,94.22
2018-02-25T04:14:16.653Z,94.13
2018-02-25T04:15:26.616Z,93.94
2018-02-25T04:16:36.566Z,94.13
2018-02-25T04:17:46.266Z,94.03
2018-02-25T04:18:55.953Z,94.13
2018-02-25T04:20:05.913Z,94.31
2018-02-25T04:21:15.853Z,94.31
2018-02-25T04:22:25.800Z,94.5
2018-02-25T04:23:35.742Z,94.69
2018-02-25T04:24:45.167Z,95.26
2018-02-25T04:25:55.132Z,94.69
2018-02-25T04:27:04.812Z,94.69
2018-02-25T04:28:14.503Z,94.98
2018-02-25T04:29:24.449Z,95.16
2018-02-25T04:30:34.136Z,95.73
2018-02-25T04:31:43.578Z,94.79
2018-02-25T04:32:53.280Z,95.26
2018-02-25T04:34:03.254Z,95.64
2018-02-25T04:35:12.685Z,95.35
2018-02-25T04:36:22.630Z,94.98
2018-02-25T04:37:32.583Z,95.54
2018-02-25T04:38:42.522Z,95.64
2018-02-25T04:39:52.467Z,95.54
2018-02-25T04:41:02.420Z,95.07
2018-02-25T04:42:12.380Z,95.35
2018-02-25T04:43:22.342Z,95.16
2018-02-25T04:44:32.292Z,94.41
2018-02-25T04:45:41.727Z,95.07
2018-02-25T04:46:51.426Z,94.69
2018-02-25T04:48:01.130Z,94.98
2018-02-25T04:49:10.822Z,94.98
2018-02-25T04:50:20.249Z,94.79
2018-02-25T04:51:30.190Z,94.31
2018-02-25T04:52:39.875Z,94.98
2018-02-25T04:53:49.562Z,94.98
2018-02-25T04:54:59.501Z,95.54
2018-02-25T04:56:09.447Z,95.45
2018-02-25T04:57:19.136Z,95.35
2018-02-25T04:58:28.828Z,95.07
2018-02-25T04:59:38.520Z,95.35
2018-02-25T05:00:47.975Z,94.69
2018-02-25T05:01:57.664Z,95.54
2018-02-25T05:03:07.351Z,94.88
2018-02-25T05:04:16.795Z,94.69
2018-02-25T05:05:26.765Z,95.16
2018-02-25T05:06:36.459Z,94.79
2018-02-25T05:07:45.905Z,95.16
2018-02-25T05:08:55.848Z,94.69
2018-02-25T05:10:05.803Z,95.16
2018-02-25T05:11:15.504Z,95.07
2018-02-25T05:12:25.469Z,95.16
2018-02-25T05:13:35.429Z,94.6
2018-02-25T05:14:45.457Z,94.6
2018-02-25T05:15:55.662Z,95.35
2018-02-25T05:17:05.353Z,95.07
2018-02-25T05:18:15.303Z,95.35
2018-02-25T05:19:24.728Z,95.11
2018-02-25T05:20:34.407Z,94.98
2018-02-25T05:21:44.092Z,95.59
2018-02-25T05:22:53.780Z,95.59
2018-02-25T05:24:03.224Z,95.16
2018-02-25T05:25:13.183Z,95.02
2018-02-25T05:26:23.127Z,95.11
2018-02-25T05:27:32.566Z,95.21
2018-02-25T05:28:42.520Z,95.21
2018-02-25T05:29:52.487Z,95.3
2018-02-25T05:31:02.443Z,94.93
2018-02-25T05:32:12.395Z,96.15
2018-02-25T05:33:22.080Z,96.25
2018-02-25T05:34:31.767Z,96.53
2018-02-25T05:35:41.463Z,97.28
2018-02-25T05:36:51.408Z,97.38
2018-02-25T05:38:01.354Z,97.28
2018-02-25T05:39:10.788Z,97.47
2018-02-25T05:40:20.732Z,97
2018-02-25T05:41:30.682Z,97.28
2018-02-25T05:42:40.624Z,97.66
2018-02-25T05:43:50.564Z,97.19
2018-02-25T05:45:00.515Z,97.28
2018-02-25T05:46:10.215Z,97.47
2018-02-25T05:47:20.162Z,98.03
2018-02-25T05:48:30.106Z,98.32
2018-02-25T05:49:40.091Z,98.03
2018-02-25T05:50:50.049Z,98.41
2018-02-25T05:51:59.998Z,98.88
2018-02-25T05:53:09.694Z,98.41
2018-02-25T05:54:19.130Z,98.41
2018-02-25T05:55:28.821Z,98.5
2018-02-25T05:56:38.511Z,98.69
2018-02-25T05:57:48.484Z,98.6
2018-02-25T05:58:58.195Z,99.63
2018-02-25T06:00:08.155Z,98.69
2018-02-25T06:01:18.099Z,98.88
2018-02-25T06:02:27.789Z,99.07
2018-02-25T06:03:37.737Z,98.88
2018-02-25T06:04:47.684Z,99.82
2018-02-25T06:05:57.627Z,98.6
2018-02-25T06:07:07.328Z,98.79
2018-02-25T06:08:17.298Z,99.44
2018-02-25T06:09:27.236Z,99.91
2018-02-25T06:10:36.929Z,99.99
2018-02-25T06:11:46.619Z,99.99
2018-02-25T06:12:56.570Z,99.35
2018-02-25T06:14:06.002Z,99.63
2018-02-25T06:15:15.975Z,99.99
2018-02-25T06:16:25.992Z,99.73
2018-02-25T06:17:35.934Z,99.44
2018-02-25T06:18:45.888Z,99.73
2018-02-25T06:19:55.842Z,99.73
2018-02-25T06:21:05.790Z,99.44
2018-02-25T06:22:15.493Z,99.99
2018-02-25T06:23:24.920Z,99.99
2018-02-25T06:24:34.647Z,99.99
2018-02-25T06:25:44.593Z,99.99
2018-02-25T06:26:54.288Z,99.99
2018-02-25T06:28:04.231Z,99.54
2018-02-25T06:29:14.186Z,99.82
2018-02-25T06:30:24.132Z,99.63
2018-02-25T06:31:34.081Z,99.54
2018-02-25T06:32:44.037Z,99.54
2018-02-25T06:33:53.984Z,99.73
2018-02-25T06:35:03.678Z,99.99
2018-02-25T06:36:13.647Z,99.99
2018-02-25T06:37:23.595Z,99.99
2018-02-25T06:38:33.565Z,99.99
2018-02-25T06:39:43.517Z,99.99
2018-02-25T06:40:53.466Z,99.99
2018-02-25T06:42:03.420Z,99.99
2018-02-25T06:43:13.387Z,99.99
2018-02-25T06:44:23.354Z,99.99
2018-02-25T06:45:33.298Z,99.99
2018-02-25T06:46:43.036Z,99.99
2018-02-25T06:47:52.845Z,99.99
2018-02-25T06:49:02.805Z,99.99
2018-02-25T06:50:12.234Z,99.99
2018-02-25T06:51:21.935Z,99.99
2018-02-25T06:52:31.371Z,99.99
2018-02-25T06:53:41.323Z,99.99
2018-02-25T06:54:51.281Z,99.99
2018-02-25T06:56:00.446Z,99.99
2018-02-25T06:57:10.393Z,99.97
2018-02-25T06:58:19.566Z,99.99
2018-02-25T06:59:29.524Z,99.99
2018-02-25T07:00:39.046Z,99.99
2018-02-25T07:01:48.994Z,99.99
2018-02-25T07:02:58.933Z,99.59
2018-02-25T07:04:08.363Z,98.93
2018-02-25T07:05:18.056Z,98.93
2018-02-25T07:06:27.748Z,98.93
2018-02-25T07:07:37.967Z,99.12
2018-02-25T07:08:47.659Z,99.02
2018-02-25T07:09:57.615Z,99.78
2018-02-25T07:11:07.716Z,99.68
2018-02-25T07:12:17.672Z,99.78
2018-02-25T07:13:27.632Z,99.12
2018-02-25T07:14:37.322Z,98.93
2018-02-25T07:15:47.010Z,99.02
2018-02-25T07:16:56.706Z,99.21
2018-02-25T07:18:06.406Z,97.99
2018-02-25T07:19:15.854Z,97.89
2018-02-25T07:20:25.285Z,98.36
2018-02-25T07:21:34.974Z,98.27
2018-02-25T07:22:44.411Z,98.18
2018-02-25T07:23:54.116Z,98.36
2018-02-25T07:25:04.080Z,98.18
2018-02-25T07:26:13.991Z,98.18
2018-02-25T07:27:23.164Z,98.27
2018-02-25T07:28:32.589Z,97.42
2018-02-25T07:29:42.023Z,97.33
2018-02-25T07:30:51.973Z,97.14
2018-02-25T07:32:01.677Z,97.33
2018-02-25T07:33:11.684Z,97.14
2018-02-25T07:34:21.117Z,96.95
2018-02-25T07:35:31.083Z,96.48
2018-02-25T07:36:40.838Z,96.2
2018-02-25T07:37:50.267Z,96.86
2018-02-25T07:38:59.702Z,97.33
2018-02-25T07:40:09.653Z,96.77
2018-02-25T07:41:19.609Z,96.48
2018-02-25T07:42:29.661Z,96.48
2018-02-25T07:43:39.448Z,96.3
2018-02-25T07:44:48.890Z,95.45
2018-02-25T07:45:58.842Z,95.35
2018-02-25T07:47:08.787Z,96.15
2018-02-25T07:48:18.790Z,96.62
2018-02-25T07:49:28.492Z,95.68
2018-02-25T07:50:38.458Z,95.12
2018-02-25T07:51:48.422Z,95.21
2018-02-25T07:52:58.415Z,95.68
2018-02-25T07:54:08.360Z,95.68
2018-02-25T07:55:18.331Z,95.87
2018-02-25T07:56:28.020Z,95.02
2018-02-25T07:57:37.974Z,94.93
2018-02-25T07:58:47.708Z,93.8
2018-02-25T07:59:57.657Z,93.8
2018-02-25T08:01:07.626Z,93.61
2018-02-25T08:02:17.393Z,93.89
2018-02-25T08:03:27.111Z,93.51
2018-02-25T08:04:36.871Z,93.51
2018-02-25T08:05:46.557Z,92.95
2018-02-25T08:06:56.508Z,93.32
2018-02-25T08:08:06.198Z,92.29
2018-02-25T08:09:15.906Z,91.53
2018-02-25T08:10:25.889Z,91.35
2018-02-25T08:11:35.588Z,90.31
2018-02-25T08:12:45.299Z,90.41
2018-02-25T08:13:55.003Z,89.37
2018-02-25T08:15:04.715Z,89.46
2018-02-25T08:16:14.407Z,89.74
2018-02-25T08:17:23.840Z,88.8
2018-02-25T08:18:33.537Z,88.52
2018-02-25T08:19:43.502Z,87.95
2018-02-25T08:20:53.456Z,86.58
2018-02-25T08:22:03.668Z,86.02
2018-02-25T08:23:13.369Z,86.3
2018-02-25T08:24:23.150Z,84.22
2018-02-25T08:25:32.852Z,83.37
2018-02-25T08:26:42.558Z,83.65
2018-02-25T08:27:52.520Z,82.19
2018-02-25T08:29:02.229Z,80.4
2018-02-25T08:30:11.926Z,78.7
2018-02-25T08:31:21.742Z,79.93
2018-02-25T08:32:31.715Z,80.44
2018-02-25T08:33:41.418Z,76.57
2018-02-25T08:34:50.858Z,74.21
2018-02-25T08:36:00.553Z,73.55
2018-02-25T08:37:09.996Z,74.02
2018-02-25T08:38:19.950Z,73.83
2018-02-25T08:39:29.665Z,71.75
2018-02-25T08:40:39.631Z,71.09
2018-02-25T08:41:49.337Z,69.3
2018-02-25T08:42:59.362Z,68.35
2018-02-25T08:44:09.056Z,68.07
2018-02-25T08:45:19.017Z,68.48
2018-02-25T08:46:28.722Z,68.39
2018-02-25T08:47:38.427Z,67.44
2018-02-25T08:48:48.400Z,67.82
2018-02-25T08:49:58.102Z,66.88
2018-02-25T08:51:07.809Z,65.84
2018-02-25T08:52:17.758Z,66.41
2018-02-25T08:53:27.460Z,64.64
2018-02-25T08:54:37.424Z,63.98
2018-02-25T08:55:47.384Z,63.42
2018-02-25T08:56:57.346Z,63.23
2018-02-25T08:58:07.066Z,61.99
2018-02-25T08:59:17.026Z,61.71
2018-02-25T09:00:26.729Z,61.43
2018-02-25T09:01:36.713Z,61.71
2018-02-25T09:02:46.418Z,62.37
2018-02-25T09:03:55.870Z,62.37
2018-02-25T09:05:05.835Z,60.2
2018-02-25T09:06:15.546Z,58.5
2018-02-25T09:07:25.253Z,57.87
2018-02-25T09:08:34.970Z,57.49
2018-02-25T09:09:44.414Z,56.73
2018-02-25T09:10:54.115Z,56.16
2018-02-25T09:12:03.821Z,56.26
2018-02-25T09:13:13.782Z,55.69
2018-02-25T09:14:23.754Z,55.79
2018-02-25T09:15:33.455Z,54.74
2018-02-25T09:16:43.179Z,54.08
2018-02-25T09:17:52.905Z,53.23
2018-02-25T09:19:02.350Z,53.42
2018-02-25T09:20:12.344Z,52.22
2018-02-25T09:21:22.184Z,51.65
2018-02-25T09:22:31.892Z,51.62
2018-02-25T09:23:41.665Z,51.84
2018-02-25T09:24:51.380Z,52.22
2018-02-25T09:26:01.351Z,51.84
2018-02-25T09:27:11.072Z,50.96
2018-02-25T09:28:20.804Z,51.43
2018-02-25T09:29:30.797Z,50.87
2018-02-25T09:30:40.250Z,50.42
2018-02-25T09:31:49.956Z,50.04
2018-02-25T09:32:59.660Z,50.04
2018-02-25T09:34:09.348Z,50.14
2018-02-25T09:35:19.053Z,50.23
2018-02-25T09:36:28.762Z,50.33
2018-02-25T09:37:38.481Z,49.48
2018-02-25T09:38:48.445Z,49.38
2018-02-25T09:39:58.179Z,48.82
2018-02-25T09:41:08.166Z,47.96
2018-02-25T09:42:18.140Z,47.04
2018-02-25T09:43:28.016Z,46.66
2018-02-25T09:44:38.014Z,46.85
2018-02-25T09:45:47.992Z,46.09
2018-02-25T09:46:57.494Z,45.98
2018-02-25T09:48:06.940Z,46.26
2018-02-25T09:49:16.380Z,46.73
2018-02-25T09:50:25.870Z,47.02
2018-02-25T09:51:35.867Z,48.25
2018-02-25T09:52:45.577Z,48.25
2018-02-25T09:53:55.306Z,47.49
2018-02-25T09:55:05.274Z,47.39
2018-02-25T09:56:14.728Z,47.2
2018-02-25T09:57:24.700Z,46.73
2018-02-25T09:58:34.420Z,46.47
2018-02-25T09:59:43.632Z,45.24
2018-02-25T10:00:53.093Z,45.05
2018-02-25T10:02:02.808Z,44.7
2018-02-25T10:03:12.527Z,44.58
2018-02-25T10:04:22.494Z,44.86
2018-02-25T10:05:32.207Z,45.24
2018-02-25T10:06:42.166Z,46.36
2018-02-25T10:07:52.143Z,46.45
2018-02-25T10:09:01.906Z,47.3
2018-02-25T10:10:11.417Z,46.94
2018-02-25T10:11:21.406Z,46.28
2018-02-25T10:12:31.118Z,45.15
2018-02-25T10:13:41.094Z,44.51
2018-02-25T10:14:50.826Z,44.03
2018-02-25T10:16:00.537Z,44.6
2018-02-25T10:17:10.263Z,44.6
2018-02-25T10:18:20.234Z,45.15
2018-02-25T10:19:29.959Z,45.05
2018-02-25T10:20:39.459Z,44.22
2018-02-25T10:21:49.425Z,43.94
2018-02-25T10:22:59.402Z,44.32
2018-02-25T10:24:08.848Z,45.24
2018-02-25T10:25:18.806Z,46.09
2018-02-25T10:26:28.517Z,45.81
2018-02-25T10:27:38.295Z,45.9
2018-02-25T10:28:47.992Z,45.9
2018-02-25T10:29:57.693Z,45.43
2018-02-25T10:31:07.664Z,45.15
2018-02-25T10:32:17.631Z,45.98
2018-02-25T10:33:27.090Z,47.11
2018-02-25T10:34:37.055Z,47.77
2018-02-25T10:35:47.019Z,48.15
2018-02-25T10:36:57.011Z,47.42
2018-02-25T10:38:06.974Z,45.9
2018-02-25T10:39:16.437Z,46
2018-02-25T10:40:26.466Z,46.09
2018-02-25T10:41:36.445Z,46.26
2018-02-25T10:42:46.173Z,47.2
2018-02-25T10:43:56.146Z,46.92
2018-02-25T10:45:05.874Z,47.11
2018-02-25T10:46:15.586Z,48.44
2018-02-25T10:47:25.595Z,48.06
2018-02-25T10:48:35.038Z,46.56
2018-02-25T10:49:44.755Z,45.24
2018-02-25T10:50:54.466Z,44.98
2018-02-25T10:52:03.938Z,43.84
2018-02-25T10:53:13.388Z,42.63
2018-02-25T10:54:23.431Z,41.42
2018-02-25T10:55:33.430Z,40.19
2018-02-25T10:56:42.891Z,39.26
2018-02-25T10:57:52.601Z,37.93
2018-02-25T10:59:02.322Z,38.03
2018-02-25T11:00:12.329Z,37.19
2018-02-25T11:01:21.789Z,37.37
2018-02-25T11:02:31.508Z,37.08
2018-02-25T11:03:41.495Z,36.99
2018-02-25T11:04:51.212Z,37.74
2018-02-25T11:06:00.947Z,37.93
2018-02-25T11:07:10.662Z,38.67
2018-02-25T11:08:20.639Z,39.32
2018-02-25T11:09:30.371Z,39.98
2018-02-25T11:10:40.340Z,39.79
2018-02-25T11:11:50.054Z,40.91
2018-02-25T11:12:59.775Z,41.85
2018-02-25T11:14:09.477Z,42.33
2018-02-25T11:15:19.189Z,43.16
2018-02-25T11:16:29.325Z,43.82
2018-02-25T11:17:39.042Z,44.2
2018-02-25T11:18:49.012Z,44.77
2018-02-25T11:19:58.996Z,44.77
2018-02-25T11:21:08.465Z,44.67
2018-02-25T11:22:17.929Z,44.67
2018-02-25T11:23:27.673Z,43.73
2018-02-25T11:24:37.134Z,44.48
2018-02-25T11:25:46.852Z,44.41
2018-02-25T11:26:56.826Z,43.27
2018-02-25T11:28:06.805Z,42.35
2018-02-25T11:29:16.527Z,41.88
2018-02-25T11:30:26.512Z,41.31
2018-02-25T11:31:36.134Z,40.28
2018-02-25T11:32:46.145Z,39.24
2018-02-25T11:33:55.908Z,38.79
2018-02-25T11:35:05.870Z,38.69
2018-02-25T11:36:15.587Z,39.45
2018-02-25T11:37:25.582Z,38.79
2018-02-25T11:38:35.290Z,36.82
2018-02-25T11:39:44.999Z,36.53
2018-02-25T11:40:54.971Z,35.31
2018-02-25T11:42:04.706Z,35.03
2018-02-25T11:43:14.448Z,34
2018-02-25T11:44:24.463Z,33.53
2018-02-25T11:45:34.190Z,33.05
2018-02-25T11:46:43.644Z,32.31
2018-02-25T11:47:53.368Z,31.09
2018-02-25T11:49:02.824Z,30.06
2018-02-25T11:50:12.546Z,31.07
2018-02-25T11:51:22.515Z,31.36
2018-02-25T11:52:31.962Z,31.45
2018-02-25T11:53:41.978Z,30.71
2018-02-25T11:54:51.696Z,30.43
2018-02-25T11:56:01.413Z,30.43
2018-02-25T11:57:10.872Z,29.77
2018-02-25T11:58:20.846Z,29.77
2018-02-25T11:59:30.307Z,29.79
2018-02-25T12:00:40.284Z,29.03
2018-02-25T12:01:50.261Z,28.55
2018-02-25T12:03:00.239Z,28.09
2018-02-25T12:04:09.706Z,27.69
2018-02-25T12:05:19.423Z,27.79
2018-02-25T12:06:28.890Z,27.98
2018-02-25T12:07:38.867Z,28.63
2018-02-25T12:08:48.584Z,29.19
2018-02-25T12:09:58.573Z,29.38
2018-02-25T12:11:08.656Z,29.47
2018-02-25T12:12:18.384Z,29.09
2018-02-25T12:13:28.362Z,29.19
2018-02-25T12:14:38.080Z,28.63
2018-02-25T12:15:48.055Z,29.01
2018-02-25T12:16:57.514Z,29.01
2018-02-25T12:18:07.502Z,28.34
2018-02-25T12:19:17.219Z,27.88
2018-02-25T12:20:26.937Z,27.22
2018-02-25T12:21:36.546Z,28.34
2018-02-25T12:22:46.020Z,28.25
2018-02-25T12:23:55.496Z,29.17
2018-02-25T12:25:05.222Z,30.4
2018-02-25T12:26:14.687Z,30.49
2018-02-25T12:27:24.424Z,30.12
2018-02-25T12:28:34.137Z,29.93
2018-02-25T12:29:44.112Z,29.95
2018-02-25T12:30:53.849Z,29.57
2018-02-25T12:32:03.841Z,28.82
2018-02-25T12:33:13.826Z,28.82
2018-02-25T12:34:23.546Z,29.47
2018-02-25T12:35:33.259Z,29.84
2018-02-25T12:36:43.240Z,30.12
2018-02-25T12:37:53.221Z,30.87
2018-02-25T12:39:03.401Z,31.15
2018-02-25T12:40:13.134Z,30.96
2018-02-25T12:41:23.142Z,30.51
2018-02-25T12:42:32.328Z,30.22
2018-02-25T12:43:42.044Z,29.57
2018-02-25T12:44:51.763Z,29.09
2018-02-25T12:46:01.493Z,28.9
2018-02-25T12:47:11.471Z,28.25
2018-02-25T12:48:21.191Z,28.52
2018-02-25T12:49:30.657Z,29.46
2018-02-25T12:50:40.369Z,30.58
2018-02-25T12:51:50.077Z,31.53
2018-02-25T12:52:59.525Z,32.94
2018-02-25T12:54:08.975Z,33.42
2018-02-25T12:55:18.711Z,33.69
2018-02-25T12:56:28.708Z,32.73
2018-02-25T12:57:38.432Z,32.18
2018-02-25T12:58:48.461Z,31.63
2018-02-25T12:59:58.189Z,31.71
2018-02-25T13:01:07.900Z,31.05
2018-02-25T13:02:17.878Z,30.58
2018-02-25T13:03:27.909Z,31.05
2018-02-25T13:04:37.618Z,30.58
2018-02-25T13:05:47.334Z,30.6
2018-02-25T13:06:57.301Z,29.84
2018-02-25T13:08:07.276Z,28.82
2018-02-25T13:09:17.266Z,28.06
2018-02-25T13:10:26.737Z,27.41
2018-02-25T13:11:36.452Z,27.03
2018-02-25T13:12:46.168Z,27.22
2018-02-25T13:13:56.142Z,27.68
2018-02-25T13:15:05.884Z,28.06
2018-02-25T13:16:15.865Z,27.87
2018-02-25T13:17:25.835Z,27.67
2018-02-25T13:18:35.818Z,28.7
2018-02-25T13:19:45.807Z,29.46
2018-02-25T13:20:55.522Z,30.22
2018-02-25T13:22:05.254Z,31.8
2018-02-25T13:23:15.242Z,32.73
2018-02-25T13:24:24.977Z,34.42
2018-02-25T13:25:35.067Z,34.99
2018-02-25T13:26:44.790Z,34.14
2018-02-25T13:27:54.759Z,33.69
2018-02-25T13:29:04.727Z,33.04
2018-02-25T13:30:14.704Z,32.56
2018-02-25T13:31:24.408Z,31.99
2018-02-25T13:32:34.400Z,32.84
2018-02-25T13:33:44.372Z,33.21
2018-02-25T13:34:53.816Z,33.59
2018-02-25T13:36:03.791Z,33.69
2018-02-25T13:37:13.761Z,33.3
2018-02-25T13:38:23.757Z,33.04
2018-02-25T13:39:33.469Z,32.01
2018-02-25T13:40:43.453Z,31.17
2018-02-25T13:41:53.166Z,30.41
2018-02-25T13:43:02.892Z,29.38
2018-02-25T13:44:12.623Z,29.47
2018-02-25T13:45:22.600Z,29.19
2018-02-25T13:46:32.050Z,30.51
2018-02-25T13:47:41.504Z,30.51
2018-02-25T13:48:50.948Z,31.34
2018-02-25T13:50:00.158Z,32.46
2018-02-25T13:51:09.881Z,34.25
2018-02-25T13:52:19.344Z,34.82
2018-02-25T13:53:29.338Z,34.16
2018-02-25T13:54:39.323Z,34.25
2018-02-25T13:55:48.512Z,34.42
2018-02-25T13:56:58.231Z,34.14
2018-02-25T13:58:08.240Z,34.33
2018-02-25T13:59:17.754Z,34.61
2018-02-25T14:00:27.458Z,34.8
2018-02-25T14:01:37.169Z,34.9
2018-02-25T14:02:47.168Z,34.71
2018-02-25T14:03:57.143Z,34.99
2018-02-25T14:05:07.111Z,35.85
2018-02-25T14:06:16.818Z,36.51
2018-02-25T14:07:26.800Z,36.97
2018-02-25T14:08:36.523Z,37.06
2018-02-25T14:09:46.498Z,36.87
2018-02-25T14:10:56.216Z,36.4
2018-02-25T14:12:05.934Z,36.59
2018-02-25T14:13:15.915Z,37.06
2018-02-25T14:14:25.624Z,37.06
2018-02-25T14:15:35.378Z,37.16
2018-02-25T14:16:45.084Z,37.8
2018-02-25T14:17:54.269Z,39.11
2018-02-25T14:19:03.982Z,40.25
2018-02-25T14:20:13.960Z,41.36
2018-02-25T14:21:23.925Z,42.02
2018-02-25T14:22:33.897Z,42.02
2018-02-25T14:23:43.618Z,41.47
2018-02-25T14:24:53.086Z,41.19
2018-02-25T14:26:03.074Z,41.47
2018-02-25T14:27:12.516Z,40.53
2018-02-25T14:28:22.496Z,39.6
2018-02-25T14:29:32.207Z,39.79
2018-02-25T14:30:41.656Z,39.13
2018-02-25T14:31:51.619Z,39.6
2018-02-25T14:33:01.322Z,39.7
2018-02-25T14:34:11.287Z,39.41
2018-02-25T14:35:21.068Z,39.13
2018-02-25T14:36:30.776Z,39.22
2018-02-25T14:37:39.965Z,39.22
2018-02-25T14:38:49.422Z,39.22
2018-02-25T14:39:59.382Z,38.65
2018-02-25T14:41:09.355Z,38.46
2018-02-25T14:42:19.059Z,39.32
2018-02-25T14:43:29.174Z,40.45
2018-02-25T14:44:38.944Z,41
2018-02-25T14:45:48.932Z,41.19
2018-02-25T14:46:58.888Z,40.53
2018-02-25T14:48:08.866Z,40.08
2018-02-25T14:49:18.585Z,40.26
2018-02-25T14:50:28.304Z,40.36
2018-02-25T14:51:38.280Z,40.34
2018-02-25T14:52:47.974Z,40.34
2018-02-25T14:53:57.960Z,40.17
2018-02-25T14:55:07.924Z,41.19
2018-02-25T14:56:17.387Z,41.19
2018-02-25T14:57:27.105Z,42.33
2018-02-25T14:58:36.819Z,42.61
2018-02-25T14:59:46.820Z,42.88
2018-02-25T15:00:56.790Z,43.16
2018-02-25T15:02:06.756Z,43.91